sensor_id;sensor_type;location;lat;lon;timestamp;P1;durP1;ratioP1;P2;durP2;ratioP2
39924;SDS011;25592;49.986;11.618;2023-06-01T00:00:32;6.25;;;2.10;;
39924;SDS011;25592;49.986;11.618;2023-06-01T00:03:17;6.20;;;2.00;;
39924;SDS011;25592;49.986;11.618;2023-06-01T00:06:03;4.80;;;2.30;;
39924;SDS011;25592;49.986;11.618;2023-06-01T00:08:49;4.30;;;2.08;;
39924;SDS011;25592;49.986;11.618;2023-06-01T00:11:35;6.07;;;2.05;;
39924;SDS011;25592;49.986;11.618;2023-06-01T00:14:20;5.57;;;2.08;;
39924;SDS011;25592;49.986;11.618;2023-06-01T00:17:06;5.05;;;2.50;;
39924;SDS011;25592;49.986;11.618;2023-06-01T00:19:52;5.15;;;2.00;;
39924;SDS011;25592;49.986;11.618;2023-06-01T00:22:38;4.32;;;2.00;;
39924;SDS011;25592;49.986;11.618;2023-06-01T00:25:24;4.25;;;2.42;;
39924;SDS011;25592;49.986;11.618;2023-06-01T00:28:09;7.68;;;2.65;;
39924;SDS011;25592;49.986;11.618;2023-06-01T00:30:54;4.25;;;1.98;;
39924;SDS011;25592;49.986;11.618;2023-06-01T00:33:40;4.95;;;1.95;;
39924;SDS011;25592;49.986;11.618;2023-06-01T00:36:25;5.60;;;2.30;;
39924;SDS011;25592;49.986;11.618;2023-06-01T00:39:11;4.82;;;2.05;;
39924;SDS011;25592;49.986;11.618;2023-06-01T00:41:56;5.50;;;2.15;;
39924;SDS011;25592;49.986;11.618;2023-06-01T00:44:43;5.43;;;1.95;;
39924;SDS011;25592;49.986;11.618;2023-06-01T00:47:28;5.40;;;2.10;;
39924;SDS011;25592;49.986;11.618;2023-06-01T00:50:13;6.40;;;2.20;;
39924;SDS011;25592;49.986;11.618;2023-06-01T00:52:59;6.75;;;2.30;;
39924;SDS011;25592;49.986;11.618;2023-06-01T00:55:47;7.03;;;2.28;;
39924;SDS011;25592;49.986;11.618;2023-06-01T00:58:33;6.53;;;2.55;;
39924;SDS011;25592;49.986;11.618;2023-06-01T01:01:18;7.43;;;2.40;;
39924;SDS011;25592;49.986;11.618;2023-06-01T01:04:04;3.67;;;1.95;;
39924;SDS011;25592;49.986;11.618;2023-06-01T01:10:09;5.15;;;2.20;;
39924;SDS011;25592;49.986;11.618;2023-06-01T01:16:28;5.72;;;2.30;;
39924;SDS011;25592;49.986;11.618;2023-06-01T01:22:39;7.07;;;2.47;;
39924;SDS011;25592;49.986;11.618;2023-06-01T01:26:04;4.97;;;2.35;;
39924;SDS011;25592;49.986;11.618;2023-06-01T01:29:03;10.07;;;2.80;;
39924;SDS011;25592;49.986;11.618;2023-06-01T01:31:57;5.10;;;2.20;;
39924;SDS011;25592;49.986;11.618;2023-06-01T01:34:45;5.55;;;2.65;;
39924;SDS011;25592;49.986;11.618;2023-06-01T01:37:33;7.47;;;2.55;;
39924;SDS011;25592;49.986;11.618;2023-06-01T01:40:18;7.32;;;2.30;;
39924;SDS011;25592;49.986;11.618;2023-06-01T01:43:05;6.82;;;2.38;;
39924;SDS011;25592;49.986;11.618;2023-06-01T01:45:53;3.90;;;1.95;;
39924;SDS011;25592;49.986;11.618;2023-06-01T01:48:48;5.47;;;2.85;;
39924;SDS011;25592;49.986;11.618;2023-06-01T01:55:16;6.80;;;2.80;;
39924;SDS011;25592;49.986;11.618;2023-06-01T01:58:03;4.57;;;2.00;;
39924;SDS011;25592;49.986;11.618;2023-06-01T02:00:49;5.50;;;3.50;;
39924;SDS011;25592;49.986;11.618;2023-06-01T02:03:35;7.80;;;2.80;;
39924;SDS011;25592;49.986;11.618;2023-06-01T02:06:21;4.32;;;1.98;;
39924;SDS011;25592;49.986;11.618;2023-06-01T02:09:06;5.78;;;2.90;;
39924;SDS011;25592;49.986;11.618;2023-06-01T02:11:52;4.80;;;2.20;;
39924;SDS011;25592;49.986;11.618;2023-06-01T02:14:37;5.72;;;1.92;;
39924;SDS011;25592;49.986;11.618;2023-06-01T02:17:23;5.38;;;2.22;;
39924;SDS011;25592;49.986;11.618;2023-06-01T02:20:09;8.35;;;2.88;;
39924;SDS011;25592;49.986;11.618;2023-06-01T02:22:55;5.03;;;2.40;;
39924;SDS011;25592;49.986;11.618;2023-06-01T02:25:41;7.07;;;2.65;;
39924;SDS011;25592;49.986;11.618;2023-06-01T02:28:26;7.30;;;2.50;;
39924;SDS011;25592;49.986;11.618;2023-06-01T02:31:12;6.07;;;2.10;;
39924;SDS011;25592;49.986;11.618;2023-06-01T02:33:59;5.97;;;2.40;;
39924;SDS011;25592;49.986;11.618;2023-06-01T02:36:44;7.30;;;2.65;;
39924;SDS011;25592;49.986;11.618;2023-06-01T02:39:29;4.78;;;2.08;;
39924;SDS011;25592;49.986;11.618;2023-06-01T02:42:15;5.70;;;2.45;;
39924;SDS011;25592;49.986;11.618;2023-06-01T02:45:00;6.95;;;2.22;;
39924;SDS011;25592;49.986;11.618;2023-06-01T02:47:45;3.80;;;1.85;;
39924;SDS011;25592;49.986;11.618;2023-06-01T02:50:31;8.25;;;2.30;;
39924;SDS011;25592;49.986;11.618;2023-06-01T02:53:16;9.32;;;2.85;;
39924;SDS011;25592;49.986;11.618;2023-06-01T02:56:02;9.13;;;2.22;;
39924;SDS011;25592;49.986;11.618;2023-06-01T02:58:47;4.47;;;2.45;;
39924;SDS011;25592;49.986;11.618;2023-06-01T03:01:33;5.05;;;2.53;;
39924;SDS011;25592;49.986;11.618;2023-06-01T03:04:20;4.88;;;2.30;;
39924;SDS011;25592;49.986;11.618;2023-06-01T03:07:06;5.30;;;2.70;;
39924;SDS011;25592;49.986;11.618;2023-06-01T03:09:51;7.55;;;2.78;;
39924;SDS011;25592;49.986;11.618;2023-06-01T03:12:37;6.57;;;2.30;;
39924;SDS011;25592;49.986;11.618;2023-06-01T03:15:22;5.80;;;2.72;;
39924;SDS011;25592;49.986;11.618;2023-06-01T03:18:07;6.25;;;2.75;;
39924;SDS011;25592;49.986;11.618;2023-06-01T03:20:56;6.22;;;2.55;;
39924;SDS011;25592;49.986;11.618;2023-06-01T03:23:41;6.53;;;2.50;;
39924;SDS011;25592;49.986;11.618;2023-06-01T03:26:28;4.30;;;2.20;;
39924;SDS011;25592;49.986;11.618;2023-06-01T03:29:13;8.93;;;2.83;;
39924;SDS011;25592;49.986;11.618;2023-06-01T03:31:59;9.98;;;2.53;;
39924;SDS011;25592;49.986;11.618;2023-06-01T03:34:44;6.93;;;2.72;;
39924;SDS011;25592;49.986;11.618;2023-06-01T03:37:30;6.03;;;2.42;;
39924;SDS011;25592;49.986;11.618;2023-06-01T03:40:15;7.43;;;2.33;;
39924;SDS011;25592;49.986;11.618;2023-06-01T03:43:01;6.38;;;2.20;;
39924;SDS011;25592;49.986;11.618;2023-06-01T03:45:47;7.93;;;2.35;;
39924;SDS011;25592;49.986;11.618;2023-06-01T03:48:33;6.88;;;2.15;;
39924;SDS011;25592;49.986;11.618;2023-06-01T03:51:18;3.70;;;2.13;;
39924;SDS011;25592;49.986;11.618;2023-06-01T03:54:04;5.15;;;2.42;;
39924;SDS011;25592;49.986;11.618;2023-06-01T03:56:49;7.25;;;2.38;;
39924;SDS011;25592;49.986;11.618;2023-06-01T03:59:34;3.88;;;2.13;;
39924;SDS011;25592;49.986;11.618;2023-06-01T04:02:20;7.15;;;3.05;;
39924;SDS011;25592;49.986;11.618;2023-06-01T04:05:07;5.28;;;2.38;;
39924;SDS011;25592;49.986;11.618;2023-06-01T04:07:58;5.82;;;2.47;;
39924;SDS011;25592;49.986;11.618;2023-06-01T04:10:43;6.63;;;2.53;;
39924;SDS011;25592;49.986;11.618;2023-06-01T04:13:29;5.45;;;2.65;;
39924;SDS011;25592;49.986;11.618;2023-06-01T04:16:17;4.45;;;2.20;;
39924;SDS011;25592;49.986;11.618;2023-06-01T04:19:03;8.38;;;2.58;;
39924;SDS011;25592;49.986;11.618;2023-06-01T04:21:48;5.43;;;2.88;;
39924;SDS011;25592;49.986;11.618;2023-06-01T04:24:34;6.95;;;2.55;;
39924;SDS011;25592;49.986;11.618;2023-06-01T04:27:19;9.15;;;2.72;;
39924;SDS011;25592;49.986;11.618;2023-06-01T04:30:05;5.10;;;2.55;;
39924;SDS011;25592;49.986;11.618;2023-06-01T04:32:55;6.28;;;2.90;;
39924;SDS011;25592;49.986;11.618;2023-06-01T04:35:40;4.85;;;2.65;;
39924;SDS011;25592;49.986;11.618;2023-06-01T04:38:28;4.85;;;2.58;;
39924;SDS011;25592;49.986;11.618;2023-06-01T04:41:14;6.43;;;3.03;;
39924;SDS011;25592;49.986;11.618;2023-06-01T04:44:02;7.43;;;3.10;;
39924;SDS011;25592;49.986;11.618;2023-06-01T04:46:51;7.43;;;2.88;;
39924;SDS011;25592;49.986;11.618;2023-06-01T04:49:40;5.60;;;2.88;;
39924;SDS011;25592;49.986;11.618;2023-06-01T04:52:26;4.90;;;2.55;;
39924;SDS011;25592;49.986;11.618;2023-06-01T04:55:12;5.90;;;2.72;;
39924;SDS011;25592;49.986;11.618;2023-06-01T04:57:58;5.95;;;2.60;;
39924;SDS011;25592;49.986;11.618;2023-06-01T05:00:43;5.15;;;2.38;;
39924;SDS011;25592;49.986;11.618;2023-06-01T05:03:29;4.97;;;2.92;;
39924;SDS011;25592;49.986;11.618;2023-06-01T05:06:14;6.45;;;2.88;;
39924;SDS011;25592;49.986;11.618;2023-06-01T05:09:00;7.10;;;3.10;;
39924;SDS011;25592;49.986;11.618;2023-06-01T05:11:45;5.55;;;3.28;;
39924;SDS011;25592;49.986;11.618;2023-06-01T05:14:31;8.48;;;2.63;;
39924;SDS011;25592;49.986;11.618;2023-06-01T05:17:16;5.20;;;2.85;;
39924;SDS011;25592;49.986;11.618;2023-06-01T05:20:01;6.45;;;2.95;;
39924;SDS011;25592;49.986;11.618;2023-06-01T05:22:48;10.27;;;3.05;;
39924;SDS011;25592;49.986;11.618;2023-06-01T05:25:33;7.00;;;3.10;;
39924;SDS011;25592;49.986;11.618;2023-06-01T05:28:18;6.20;;;2.72;;
39924;SDS011;25592;49.986;11.618;2023-06-01T05:31:05;6.50;;;2.70;;
39924;SDS011;25592;49.986;11.618;2023-06-01T05:33:51;6.68;;;3.15;;
39924;SDS011;25592;49.986;11.618;2023-06-01T05:36:36;6.45;;;3.20;;
39924;SDS011;25592;49.986;11.618;2023-06-01T05:39:22;5.82;;;2.97;;
39924;SDS011;25592;49.986;11.618;2023-06-01T05:42:12;7.13;;;3.00;;
39924;SDS011;25592;49.986;11.618;2023-06-01T05:44:57;12.02;;;4.55;;
39924;SDS011;25592;49.986;11.618;2023-06-01T05:47:43;7.40;;;3.03;;
39924;SDS011;25592;49.986;11.618;2023-06-01T05:50:28;7.05;;;3.55;;
39924;SDS011;25592;49.986;11.618;2023-06-01T05:53:13;7.47;;;3.42;;
39924;SDS011;25592;49.986;11.618;2023-06-01T05:55:59;7.03;;;3.67;;
39924;SDS011;25592;49.986;11.618;2023-06-01T05:58:44;8.52;;;3.53;;
39924;SDS011;25592;49.986;11.618;2023-06-01T06:01:31;8.93;;;3.92;;
39924;SDS011;25592;49.986;11.618;2023-06-01T06:04:16;6.93;;;3.42;;
39924;SDS011;25592;49.986;11.618;2023-06-01T06:07:02;9.90;;;3.60;;
39924;SDS011;25592;49.986;11.618;2023-06-01T06:09:47;5.20;;;3.13;;
39924;SDS011;25592;49.986;11.618;2023-06-01T06:12:33;10.25;;;3.90;;
39924;SDS011;25592;49.986;11.618;2023-06-01T06:15:18;6.38;;;3.55;;
39924;SDS011;25592;49.986;11.618;2023-06-01T06:18:04;8.48;;;3.20;;
39924;SDS011;25592;49.986;11.618;2023-06-01T06:20:49;10.00;;;3.08;;
39924;SDS011;25592;49.986;11.618;2023-06-01T06:23:34;8.25;;;3.05;;
39924;SDS011;25592;49.986;11.618;2023-06-01T06:26:20;5.53;;;3.35;;
39924;SDS011;25592;49.986;11.618;2023-06-01T06:29:05;6.78;;;2.75;;
39924;SDS011;25592;49.986;11.618;2023-06-01T06:31:50;10.15;;;3.20;;
39924;SDS011;25592;49.986;11.618;2023-06-01T06:34:36;7.10;;;3.20;;
39924;SDS011;25592;49.986;11.618;2023-06-01T06:37:21;5.90;;;3.10;;
39924;SDS011;25592;49.986;11.618;2023-06-01T06:40:07;5.25;;;3.50;;
39924;SDS011;25592;49.986;11.618;2023-06-01T06:42:58;12.18;;;3.58;;
39924;SDS011;25592;49.986;11.618;2023-06-01T06:45:45;11.73;;;3.10;;
39924;SDS011;25592;49.986;11.618;2023-06-01T06:48:31;8.00;;;3.15;;
39924;SDS011;25592;49.986;11.618;2023-06-01T06:51:23;10.60;;;3.28;;
39924;SDS011;25592;49.986;11.618;2023-06-01T06:54:10;9.05;;;3.45;;
39924;SDS011;25592;49.986;11.618;2023-06-01T06:56:57;11.48;;;3.42;;
39924;SDS011;25592;49.986;11.618;2023-06-01T06:59:45;9.73;;;3.97;;
39924;SDS011;25592;49.986;11.618;2023-06-01T07:02:34;8.98;;;3.55;;
39924;SDS011;25592;49.986;11.618;2023-06-01T07:05:20;7.40;;;2.67;;
39924;SDS011;25592;49.986;11.618;2023-06-01T07:08:06;10.20;;;3.20;;
39924;SDS011;25592;49.986;11.618;2023-06-01T07:10:53;8.82;;;2.80;;
39924;SDS011;25592;49.986;11.618;2023-06-01T07:13:41;10.60;;;3.13;;
39924;SDS011;25592;49.986;11.618;2023-06-01T07:16:26;13.43;;;3.17;;
39924;SDS011;25592;49.986;11.618;2023-06-01T07:19:13;8.90;;;3.30;;
39924;SDS011;25592;49.986;11.618;2023-06-01T07:21:59;10.52;;;4.07;;
39924;SDS011;25592;49.986;11.618;2023-06-01T07:24:45;7.22;;;2.72;;
39924;SDS011;25592;49.986;11.618;2023-06-01T07:27:31;8.23;;;4.28;;
39924;SDS011;25592;49.986;11.618;2023-06-01T07:30:19;12.00;;;2.80;;
39924;SDS011;25592;49.986;11.618;2023-06-01T07:33:05;10.75;;;4.00;;
39924;SDS011;25592;49.986;11.618;2023-06-01T07:35:51;9.90;;;3.28;;
39924;SDS011;25592;49.986;11.618;2023-06-01T07:38:38;9.90;;;2.85;;
39924;SDS011;25592;49.986;11.618;2023-06-01T07:41:25;5.40;;;2.58;;
39924;SDS011;25592;49.986;11.618;2023-06-01T07:44:11;5.65;;;2.72;;
39924;SDS011;25592;49.986;11.618;2023-06-01T07:46:57;9.13;;;2.58;;
39924;SDS011;25592;49.986;11.618;2023-06-01T07:49:43;5.68;;;2.13;;
39924;SDS011;25592;49.986;11.618;2023-06-01T07:52:28;6.38;;;2.30;;
39924;SDS011;25592;49.986;11.618;2023-06-01T07:55:13;7.53;;;2.22;;
39924;SDS011;25592;49.986;11.618;2023-06-01T07:58:00;10.52;;;2.75;;
39924;SDS011;25592;49.986;11.618;2023-06-01T08:00:45;8.30;;;2.28;;
39924;SDS011;25592;49.986;11.618;2023-06-01T08:03:31;7.25;;;2.20;;
39924;SDS011;25592;49.986;11.618;2023-06-01T08:06:18;14.02;;;3.00;;
39924;SDS011;25592;49.986;11.618;2023-06-01T08:09:07;7.65;;;2.15;;
39924;SDS011;25592;49.986;11.618;2023-06-01T08:11:53;8.73;;;1.88;;
39924;SDS011;25592;49.986;11.618;2023-06-01T08:14:38;6.47;;;1.98;;
39924;SDS011;25592;49.986;11.618;2023-06-01T08:17:25;7.15;;;2.05;;
39924;SDS011;25592;49.986;11.618;2023-06-01T08:20:11;6.65;;;2.63;;
39924;SDS011;25592;49.986;11.618;2023-06-01T08:22:57;6.82;;;1.95;;
39924;SDS011;25592;49.986;11.618;2023-06-01T08:25:43;4.50;;;2.75;;
39924;SDS011;25592;49.986;11.618;2023-06-01T08:28:29;5.07;;;1.80;;
39924;SDS011;25592;49.986;11.618;2023-06-01T08:31:17;4.78;;;1.85;;
39924;SDS011;25592;49.986;11.618;2023-06-01T08:34:04;5.78;;;1.88;;
39924;SDS011;25592;49.986;11.618;2023-06-01T08:36:50;8.68;;;2.38;;
39924;SDS011;25592;49.986;11.618;2023-06-01T08:39:38;4.07;;;2.20;;
39924;SDS011;25592;49.986;11.618;2023-06-01T08:45:12;4.20;;;2.45;;
39924;SDS011;25592;49.986;11.618;2023-06-01T08:47:58;5.18;;;1.95;;
39924;SDS011;25592;49.986;11.618;2023-06-01T08:50:49;4.32;;;2.15;;
39924;SDS011;25592;49.986;11.618;2023-06-01T08:53:35;6.63;;;1.98;;
39924;SDS011;25592;49.986;11.618;2023-06-01T08:56:27;5.30;;;1.65;;
39924;SDS011;25592;49.986;11.618;2023-06-01T08:59:14;7.28;;;2.40;;
39924;SDS011;25592;49.986;11.618;2023-06-01T09:02:00;5.45;;;2.00;;
39924;SDS011;25592;49.986;11.618;2023-06-01T09:04:45;7.38;;;2.03;;
39924;SDS011;25592;49.986;11.618;2023-06-01T09:07:31;3.85;;;1.75;;
39924;SDS011;25592;49.986;11.618;2023-06-01T09:10:24;5.53;;;2.00;;
39924;SDS011;25592;49.986;11.618;2023-06-01T09:13:10;4.57;;;1.92;;
39924;SDS011;25592;49.986;11.618;2023-06-01T09:15:55;4.47;;;2.10;;
39924;SDS011;25592;49.986;11.618;2023-06-01T09:18:53;6.00;;;2.15;;
39924;SDS011;25592;49.986;11.618;2023-06-01T09:21:40;5.75;;;2.20;;
39924;SDS011;25592;49.986;11.618;2023-06-01T09:24:25;5.93;;;2.00;;
39924;SDS011;25592;49.986;11.618;2023-06-01T09:27:11;8.20;;;2.17;;
39924;SDS011;25592;49.986;11.618;2023-06-01T09:29:56;4.68;;;2.03;;
39924;SDS011;25592;49.986;11.618;2023-06-01T09:32:46;6.05;;;2.08;;
39924;SDS011;25592;49.986;11.618;2023-06-01T09:35:48;2.92;;;1.85;;
39924;SDS011;25592;49.986;11.618;2023-06-01T09:38:34;8.65;;;1.98;;
39924;SDS011;25592;49.986;11.618;2023-06-01T09:41:20;4.03;;;1.75;;
39924;SDS011;25592;49.986;11.618;2023-06-01T09:44:07;3.85;;;1.95;;
39924;SDS011;25592;49.986;11.618;2023-06-01T09:46:57;3.97;;;1.75;;
39924;SDS011;25592;49.986;11.618;2023-06-01T09:49:43;6.55;;;1.90;;
39924;SDS011;25592;49.986;11.618;2023-06-01T09:52:30;4.78;;;1.80;;
39924;SDS011;25592;49.986;11.618;2023-06-01T09:55:15;7.55;;;2.35;;
39924;SDS011;25592;49.986;11.618;2023-06-01T09:58:24;6.10;;;2.40;;
39924;SDS011;25592;49.986;11.618;2023-06-01T10:01:07;6.03;;;2.63;;
39924;SDS011;25592;49.986;11.618;2023-06-01T10:03:54;3.75;;;1.60;;
39924;SDS011;25592;49.986;11.618;2023-06-01T10:06:41;4.05;;;1.60;;
39924;SDS011;25592;49.986;11.618;2023-06-01T10:09:27;5.88;;;1.88;;
39924;SDS011;25592;49.986;11.618;2023-06-01T10:12:14;4.15;;;1.65;;
39924;SDS011;25592;49.986;11.618;2023-06-01T10:15:00;4.63;;;2.00;;
39924;SDS011;25592;49.986;11.618;2023-06-01T10:17:51;3.00;;;1.58;;
39924;SDS011;25592;49.986;11.618;2023-06-01T10:20:37;4.45;;;2.10;;
39924;SDS011;25592;49.986;11.618;2023-06-01T10:23:24;6.28;;;2.13;;
39924;SDS011;25592;49.986;11.618;2023-06-01T10:26:15;4.68;;;1.92;;
39924;SDS011;25592;49.986;11.618;2023-06-01T10:29:02;6.05;;;2.10;;
39924;SDS011;25592;49.986;11.618;2023-06-01T10:31:48;5.13;;;1.85;;
39924;SDS011;25592;49.986;11.618;2023-06-01T10:34:37;5.35;;;1.90;;
39924;SDS011;25592;49.986;11.618;2023-06-01T10:37:27;4.45;;;1.77;;
39924;SDS011;25592;49.986;11.618;2023-06-01T10:43:02;3.90;;;1.88;;
39924;SDS011;25592;49.986;11.618;2023-06-01T10:45:47;6.28;;;1.77;;
39924;SDS011;25592;49.986;11.618;2023-06-01T10:48:53;5.18;;;1.73;;
39924;SDS011;25592;49.986;11.618;2023-06-01T10:51:40;4.95;;;1.80;;
39924;SDS011;25592;49.986;11.618;2023-06-01T10:54:26;6.55;;;1.90;;
39924;SDS011;25592;49.986;11.618;2023-06-01T10:57:23;3.30;;;1.65;;
39924;SDS011;25592;49.986;11.618;2023-06-01T11:00:14;5.35;;;1.55;;
39924;SDS011;25592;49.986;11.618;2023-06-01T11:03:02;10.65;;;2.53;;
39924;SDS011;25592;49.986;11.618;2023-06-01T11:05:49;4.65;;;1.95;;
39924;SDS011;25592;49.986;11.618;2023-06-01T11:11:21;4.65;;;1.60;;
39924;SDS011;25592;49.986;11.618;2023-06-01T11:14:08;7.40;;;2.00;;
39924;SDS011;25592;49.986;11.618;2023-06-01T11:17:24;4.70;;;1.95;;
39924;SDS011;25592;49.986;11.618;2023-06-01T11:20:12;6.38;;;1.50;;
39924;SDS011;25592;49.986;11.618;2023-06-01T11:22:58;3.67;;;1.63;;
39924;SDS011;25592;49.986;11.618;2023-06-01T11:25:44;5.90;;;1.92;;
39924;SDS011;25592;49.986;11.618;2023-06-01T11:28:31;7.13;;;2.20;;
39924;SDS011;25592;49.986;11.618;2023-06-01T11:31:17;4.22;;;1.80;;
39924;SDS011;25592;49.986;11.618;2023-06-01T11:34:07;3.13;;;1.45;;
39924;SDS011;25592;49.986;11.618;2023-06-01T11:36:53;7.43;;;2.10;;
39924;SDS011;25592;49.986;11.618;2023-06-01T11:39:40;4.90;;;1.70;;
39924;SDS011;25592;49.986;11.618;2023-06-01T11:42:33;4.82;;;2.00;;
39924;SDS011;25592;49.986;11.618;2023-06-01T11:45:20;5.55;;;1.70;;
39924;SDS011;25592;49.986;11.618;2023-06-01T11:48:11;5.25;;;1.70;;
39924;SDS011;25592;49.986;11.618;2023-06-01T11:50:57;8.07;;;1.98;;
39924;SDS011;25592;49.986;11.618;2023-06-01T11:53:44;6.20;;;1.92;;
39924;SDS011;25592;49.986;11.618;2023-06-01T11:56:30;4.82;;;2.10;;
39924;SDS011;25592;49.986;11.618;2023-06-01T11:59:16;7.45;;;1.75;;
39924;SDS011;25592;49.986;11.618;2023-06-01T12:02:02;3.58;;;1.92;;
39924;SDS011;25592;49.986;11.618;2023-06-01T12:04:54;4.30;;;1.60;;
39924;SDS011;25592;49.986;11.618;2023-06-01T12:07:51;5.60;;;1.88;;
39924;SDS011;25592;49.986;11.618;2023-06-01T12:10:38;8.18;;;2.38;;
39924;SDS011;25592;49.986;11.618;2023-06-01T12:13:26;5.13;;;1.52;;
39924;SDS011;25592;49.986;11.618;2023-06-01T12:16:12;3.00;;;1.63;;
39924;SDS011;25592;49.986;11.618;2023-06-01T12:19:10;3.35;;;1.83;;
39924;SDS011;25592;49.986;11.618;2023-06-01T12:21:56;5.82;;;1.88;;
39924;SDS011;25592;49.986;11.618;2023-06-01T12:24:42;4.82;;;1.60;;
39924;SDS011;25592;49.986;11.618;2023-06-01T12:27:30;4.43;;;1.70;;
39924;SDS011;25592;49.986;11.618;2023-06-01T12:30:20;8.52;;;2.25;;
39924;SDS011;25592;49.986;11.618;2023-06-01T12:33:05;10.02;;;1.80;;
39924;SDS011;25592;49.986;11.618;2023-06-01T12:35:51;4.05;;;1.85;;
39924;SDS011;25592;49.986;11.618;2023-06-01T12:38:36;4.32;;;1.88;;
39924;SDS011;25592;49.986;11.618;2023-06-01T12:41:22;6.20;;;2.45;;
39924;SDS011;25592;49.986;11.618;2023-06-01T12:44:08;5.63;;;1.50;;
39924;SDS011;25592;49.986;11.618;2023-06-01T12:46:57;7.60;;;1.70;;
39924;SDS011;25592;49.986;11.618;2023-06-01T12:50:02;4.90;;;2.00;;
39924;SDS011;25592;49.986;11.618;2023-06-01T12:52:49;3.70;;;2.03;;
39924;SDS011;25592;49.986;11.618;2023-06-01T12:55:34;4.28;;;1.67;;
39924;SDS011;25592;49.986;11.618;2023-06-01T12:58:20;5.28;;;1.83;;
39924;SDS011;25592;49.986;11.618;2023-06-01T13:01:05;4.72;;;1.80;;
39924;SDS011;25592;49.986;11.618;2023-06-01T13:03:51;4.53;;;1.65;;
39924;SDS011;25592;49.986;11.618;2023-06-01T13:06:37;3.25;;;1.55;;
39924;SDS011;25592;49.986;11.618;2023-06-01T13:09:24;5.60;;;1.73;;
39924;SDS011;25592;49.986;11.618;2023-06-01T13:12:09;4.18;;;1.67;;
39924;SDS011;25592;49.986;11.618;2023-06-01T13:14:55;5.15;;;1.55;;
39924;SDS011;25592;49.986;11.618;2023-06-01T13:17:41;5.65;;;1.80;;
39924;SDS011;25592;49.986;11.618;2023-06-01T13:20:27;5.40;;;2.22;;
39924;SDS011;25592;49.986;11.618;2023-06-01T13:23:12;3.25;;;1.80;;
39924;SDS011;25592;49.986;11.618;2023-06-01T13:25:58;5.75;;;1.88;;
39924;SDS011;25592;49.986;11.618;2023-06-01T13:28:43;7.03;;;2.03;;
39924;SDS011;25592;49.986;11.618;2023-06-01T13:31:29;5.07;;;1.73;;
39924;SDS011;25592;49.986;11.618;2023-06-01T13:34:17;4.68;;;1.90;;
39924;SDS011;25592;49.986;11.618;2023-06-01T13:37:06;6.60;;;2.67;;
39924;SDS011;25592;49.986;11.618;2023-06-01T13:39:52;4.38;;;1.90;;
39924;SDS011;25592;49.986;11.618;2023-06-01T13:42:37;5.05;;;2.00;;
39924;SDS011;25592;49.986;11.618;2023-06-01T13:45:22;4.63;;;1.70;;
39924;SDS011;25592;49.986;11.618;2023-06-01T13:48:08;3.90;;;1.92;;
39924;SDS011;25592;49.986;11.618;2023-06-01T13:50:58;5.20;;;2.08;;
39924;SDS011;25592;49.986;11.618;2023-06-01T13:53:43;3.92;;;1.45;;
39924;SDS011;25592;49.986;11.618;2023-06-01T13:56:29;3.92;;;1.50;;
39924;SDS011;25592;49.986;11.618;2023-06-01T13:59:15;6.90;;;1.75;;
39924;SDS011;25592;49.986;11.618;2023-06-01T14:02:00;3.72;;;1.63;;
39924;SDS011;25592;49.986;11.618;2023-06-01T14:04:49;3.80;;;1.70;;
39924;SDS011;25592;49.986;11.618;2023-06-01T14:07:47;4.10;;;1.80;;
39924;SDS011;25592;49.986;11.618;2023-06-01T14:10:32;3.78;;;1.50;;
39924;SDS011;25592;49.986;11.618;2023-06-01T14:13:19;5.82;;;1.70;;
39924;SDS011;25592;49.986;11.618;2023-06-01T14:16:04;2.95;;;1.70;;
39924;SDS011;25592;49.986;11.618;2023-06-01T14:18:51;3.97;;;1.73;;
39924;SDS011;25592;49.986;11.618;2023-06-01T14:21:36;2.85;;;1.58;;
39924;SDS011;25592;49.986;11.618;2023-06-01T14:24:22;3.17;;;1.95;;
39924;SDS011;25592;49.986;11.618;2023-06-01T14:27:08;5.55;;;2.30;;
39924;SDS011;25592;49.986;11.618;2023-06-01T14:29:53;6.68;;;1.90;;
39924;SDS011;25592;49.986;11.618;2023-06-01T14:32:39;4.65;;;2.13;;
39924;SDS011;25592;49.986;11.618;2023-06-01T14:35:25;4.35;;;1.83;;
39924;SDS011;25592;49.986;11.618;2023-06-01T14:38:13;6.18;;;1.98;;
39924;SDS011;25592;49.986;11.618;2023-06-01T14:40:58;7.53;;;1.70;;
39924;SDS011;25592;49.986;11.618;2023-06-01T14:43:44;5.03;;;2.05;;
39924;SDS011;25592;49.986;11.618;2023-06-01T14:46:30;5.22;;;1.88;;
39924;SDS011;25592;49.986;11.618;2023-06-01T14:49:15;4.63;;;1.98;;
39924;SDS011;25592;49.986;11.618;2023-06-01T14:52:04;4.78;;;2.15;;
39924;SDS011;25592;49.986;11.618;2023-06-01T14:54:50;5.72;;;2.10;;
39924;SDS011;25592;49.986;11.618;2023-06-01T14:57:35;5.25;;;1.70;;
39924;SDS011;25592;49.986;11.618;2023-06-01T15:00:22;6.68;;;2.28;;
39924;SDS011;25592;49.986;11.618;2023-06-01T15:03:07;7.38;;;2.03;;
39924;SDS011;25592;49.986;11.618;2023-06-01T15:05:53;5.07;;;1.75;;
39924;SDS011;25592;49.986;11.618;2023-06-01T15:08:38;5.30;;;1.83;;
39924;SDS011;25592;49.986;11.618;2023-06-01T15:11:23;4.22;;;1.80;;
39924;SDS011;25592;49.986;11.618;2023-06-01T15:14:10;6.65;;;1.80;;
39924;SDS011;25592;49.986;11.618;2023-06-01T15:16:56;6.00;;;1.85;;
39924;SDS011;25592;49.986;11.618;2023-06-01T15:19:41;5.28;;;1.90;;
39924;SDS011;25592;49.986;11.618;2023-06-01T15:22:27;6.13;;;1.80;;
39924;SDS011;25592;49.986;11.618;2023-06-01T15:25:13;3.50;;;1.95;;
39924;SDS011;25592;49.986;11.618;2023-06-01T15:27:58;5.05;;;2.55;;
39924;SDS011;25592;49.986;11.618;2023-06-01T15:30:43;7.43;;;2.10;;
39924;SDS011;25592;49.986;11.618;2023-06-01T15:33:29;5.13;;;1.65;;
39924;SDS011;25592;49.986;11.618;2023-06-01T15:36:15;6.82;;;2.00;;
39924;SDS011;25592;49.986;11.618;2023-06-01T15:39:00;6.72;;;2.22;;
39924;SDS011;25592;49.986;11.618;2023-06-01T15:41:46;5.97;;;2.40;;
39924;SDS011;25592;49.986;11.618;2023-06-01T15:44:31;4.57;;;2.05;;
39924;SDS011;25592;49.986;11.618;2023-06-01T15:47:16;5.15;;;2.10;;
39924;SDS011;25592;49.986;11.618;2023-06-01T15:50:02;9.20;;;2.95;;
39924;SDS011;25592;49.986;11.618;2023-06-01T15:52:48;6.50;;;2.53;;
39924;SDS011;25592;49.986;11.618;2023-06-01T15:55:34;6.80;;;2.40;;
39924;SDS011;25592;49.986;11.618;2023-06-01T15:58:19;5.70;;;2.47;;
39924;SDS011;25592;49.986;11.618;2023-06-01T16:01:05;9.88;;;2.70;;
39924;SDS011;25592;49.986;11.618;2023-06-01T16:03:56;7.28;;;2.40;;
39924;SDS011;25592;49.986;11.618;2023-06-01T16:06:41;4.65;;;2.20;;
39924;SDS011;25592;49.986;11.618;2023-06-01T16:09:27;3.50;;;1.88;;
39924;SDS011;25592;49.986;11.618;2023-06-01T16:12:12;4.78;;;2.00;;
39924;SDS011;25592;49.986;11.618;2023-06-01T16:14:58;4.78;;;2.05;;
39924;SDS011;25592;49.986;11.618;2023-06-01T16:17:43;7.65;;;1.85;;
39924;SDS011;25592;49.986;11.618;2023-06-01T16:20:29;7.78;;;2.58;;
39924;SDS011;25592;49.986;11.618;2023-06-01T16:23:14;4.68;;;2.08;;
39924;SDS011;25592;49.986;11.618;2023-06-01T16:25:59;7.75;;;2.15;;
39924;SDS011;25592;49.986;11.618;2023-06-01T16:28:45;6.32;;;2.00;;
39924;SDS011;25592;49.986;11.618;2023-06-01T16:31:34;3.10;;;2.00;;
39924;SDS011;25592;49.986;11.618;2023-06-01T16:34:20;7.07;;;2.22;;
39924;SDS011;25592;49.986;11.618;2023-06-01T16:37:05;8.50;;;2.15;;
39924;SDS011;25592;49.986;11.618;2023-06-01T16:39:50;4.32;;;2.10;;
39924;SDS011;25592;49.986;11.618;2023-06-01T16:42:36;7.15;;;2.35;;
39924;SDS011;25592;49.986;11.618;2023-06-01T16:45:21;6.82;;;2.47;;
39924;SDS011;25592;49.986;11.618;2023-06-01T16:48:07;3.80;;;1.98;;
39924;SDS011;25592;49.986;11.618;2023-06-01T16:50:52;8.27;;;2.63;;